Time;durP1;ratioP1;P1;durP2;ratioP2;P2;SDS_P1;SDS_P2;PMS_P1;PMS_P2;Temp;Humidity;BMP_temperature;BMP_pressure;BME280_temperature;BME280_humidity;BME280_pressure;Samples;Min_cycle;Max_cycle;Signal;HPM_P1;HPM_P2
2022/07/20 00:00:39;;;;;;;6.13;3.60;;;28.50;1.00;;;;;;5090227;28;20175;-75
2022/07/20 00:03:12;;;;;;;7.05;3.90;;;28.50;1.00;;;;;;5082337;28;20235;-74
2022/07/20 00:05:39;;;;;;;10.35;4.25;;;28.60;1.00;;;;;;5108996;28;20239;-75
2022/07/20 00:08:05;;;;;;;15.93;4.63;;;28.40;1.00;;;;;;5102167;28;20263;-76
2022/07/20 00:13:16;;;;;;;7.70;3.80;;;28.50;1.00;;;;;;5107912;28;20238;-76
2022/07/20 00:15:42;;;;;;;6.27;4.60;;;28.30;1.00;;;;;;5090600;28;20210;-76
2022/07/20 00:18:08;;;;;;;9.57;4.65;;;28.30;1.00;;;;;;5110924;28;20190;-75
2022/07/20 00:20:50;;;;;;;7.63;4.30;;;28.30;1.00;;;;;;5112837;28;20552;-76
2022/07/20 00:23:15;;;;;;;7.10;4.07;;;28.30;1.00;;;;;;5106983;28;20676;-76
2022/07/20 00:25:42;;;;;;;7.75;4.40;;;28.30;1.00;;;;;;5112495;28;20202;-75
2022/07/20 00:28:07;;;;;;;9.73;4.20;;;28.30;1.00;;;;;;5111744;28;20222;-75
2022/07/20 00:30:33;;;;;;;11.43;4.60;;;;;;;;;;5111361;28;20182;-75
2022/07/20 00:32:59;;;;;;;9.88;4.40;;;28.20;1.00;;;;;;5108415;28;20179;-76
2022/07/20 00:35:24;;;;;;;10.10;4.80;;;28.20;1.00;;;;;;5113374;28;20552;-76
2022/07/20 00:37:50;;;;;;;9.17;4.87;;;28.20;1.00;;;;;;5100361;28;20692;-76
2022/07/20 00:40:15;;;;;;;8.43;4.67;;;28.40;1.00;;;;;;5116027;28;20230;-75
2022/07/20 00:42:42;;;;;;;6.73;4.50;;;;;;;;;;5100776;28;20178;-76
2022/07/20 00:45:09;;;;;;;7.45;4.40;;;28.20;1.00;;;;;;5118142;28;20175;-76
2022/07/20 00:47:34;;;;;;;7.67;4.80;;;28.20;1.00;;;;;;5098682;28;20192;-75
2022/07/20 00:50:00;;;;;;;7.03;4.70;;;29.30;1.00;;;;;;5110546;28;20186;-75
2022/07/20 00:52:26;;;;;;;6.53;4.83;;;28.10;1.00;;;;;;5117761;28;20202;-75
2022/07/20 00:54:53;;;;;;;11.53;4.27;;;28.10;1.00;;;;;;5097971;28;20216;-75
2022/07/20 00:57:19;;;;;;;6.82;4.15;;;28.10;1.00;;;;;;5116956;28;20276;-75
2022/07/20 00:59:45;;;;;;;8.60;4.43;;;28.20;1.00;;;;;;5114039;28;20241;-75
2022/07/20 01:02:11;;;;;;;7.33;5.10;;;;;;;;;;5094848;28;20202;-75
2022/07/20 01:04:38;;;;;;;7.13;4.53;;;28.00;1.00;;;;;;5120172;28;20312;-75
2022/07/20 01:07:04;;;;;;;5.23;4.30;;;28.00;1.00;;;;;;5117581;28;20178;-75
2022/07/20 01:09:29;;;;;;;7.30;4.53;;;28.00;1.00;;;;;;5099809;28;20198;-75
2022/07/20 01:11:55;;;;;;;8.90;5.00;;;28.00;1.00;;;;;;5117156;28;20202;-75
2022/07/20 01:14:21;;;;;;;6.83;4.00;;;30.20;1.00;;;;;;5118687;28;20641;-75
2022/07/20 01:16:46;;;;;;;11.53;4.53;;;27.90;1.00;;;;;;5118454;28;20214;-76
2022/07/20 01:19:12;;;;;;;6.83;4.40;;;27.90;1.00;;;;;;5118900;28;20395;-75
2022/07/20 01:21:40;;;;;;;10.67;5.30;;;27.90;1.00;;;;;;5118534;28;20182;-75
2022/07/20 01:24:13;;;;;;;13.70;4.80;;;28.00;1.00;;;;;;5115333;28;20569;-74
2022/07/20 01:26:43;;;;;;;6.97;4.53;;;27.80;1.00;;;;;;5114020;28;20175;-75
2022/07/20 01:29:10;;;;;;;7.77;4.40;;;27.80;1.00;;;;;;5113528;28;20224;-75
2022/07/20 01:31:36;;;;;;;6.77;4.70;;;27.70;1.00;;;;;;5110841;28;20189;-77
2022/07/20 01:34:02;;;;;;;8.23;4.77;;;27.70;1.00;;;;;;5118855;28;20175;-76
2022/07/20 01:36:27;;;;;;;9.00;4.70;;;27.70;1.00;;;;;;5116356;28;20198;-75
2022/07/20 01:38:53;;;;;;;8.10;4.83;;;27.70;1.00;;;;;;5117774;28;20659;-75
2022/07/20 01:41:18;;;;;;;9.23;4.50;;;27.90;1.00;;;;;;5115574;28;20676;-76
2022/07/20 01:43:44;;;;;;;6.70;4.63;;;;;;;;;;5100336;28;20238;-76
2022/07/20 01:46:10;;;;;;;6.90;5.07;;;;;;;;;;5116059;28;20572;-75
2022/07/20 01:48:36;;;;;;;7.40;5.03;;;27.70;1.00;;;;;;5115283;28;20251;-75
2022/07/20 01:51:02;;;;;;;7.00;4.53;;;27.70;1.00;;;;;;5097491;28;20181;-75
2022/07/20 01:53:28;;;;;;;11.40;5.17;;;27.70;1.00;;;;;;5117554;28;20163;-75
2022/07/20 01:55:53;;;;;;;7.47;4.60;;;27.70;1.00;;;;;;5115039;28;20198;-75
2022/07/20 01:58:20;;;;;;;9.93;4.60;;;;;;;;;;5118113;28;20182;-76
2022/07/20 02:00:46;;;;;;;10.13;5.10;;;27.70;1.00;;;;;;5113417;28;20377;-77
2022/07/20 02:03:11;;;;;;;12.40;4.97;;;28.40;1.00;;;;;;5096400;28;20175;-75
2022/07/20 02:05:38;;;;;;;8.27;4.80;;;27.80;1.00;;;;;;5099185;28;20167;-75
2022/07/20 02:08:04;;;;;;;7.17;4.50;;;27.70;1.00;;;;;;5114471;28;20327;-75
2022/07/20 02:10:29;;;;;;;9.37;4.53;;;27.70;1.00;;;;;;5117351;28;20166;-75
2022/07/20 02:12:55;;;;;;;6.30;4.03;;;27.60;1.00;;;;;;5116012;28;20175;-76
2022/07/20 02:18:07;;;;;;;13.33;5.00;;;27.60;1.00;;;;;;5115516;28;20521;-75
2022/07/20 02:20:33;;;;;;;10.55;4.80;;;27.60;1.00;;;;;;5117447;28;20162;-75
2022/07/20 02:22:58;;;;;;;8.40;4.53;;;27.50;1.00;;;;;;5115246;28;20227;-75
2022/07/20 02:25:24;;;;;;;9.37;4.90;;;27.80;1.00;;;;;;5115631;28;20166;-74
2022/07/20 02:27:50;;;;;;;9.53;5.07;;;27.50;1.00;;;;;;5116277;28;20288;-77
2022/07/20 02:30:15;;;;;;;8.50;5.00;;;27.50;1.00;;;;;;5117366;28;20643;-75
2022/07/20 02:32:41;;;;;;;13.10;5.00;;;27.50;1.00;;;;;;5113852;28;20194;-76
2022/07/20 02:35:07;;;;;;;8.33;4.83;;;27.50;1.00;;;;;;5115765;28;20174;-75
2022/07/20 02:37:32;;;;;;;9.23;5.20;;;27.40;1.00;;;;;;5115126;28;20296;-74
2022/07/20 02:39:58;;;;;;;9.63;5.00;;;27.50;1.00;;;;;;5115739;28;20190;-75
2022/07/20 02:42:23;;;;;;;8.13;4.53;;;27.40;1.00;;;;;;5114248;28;20182;-77
2022/07/20 02:44:49;;;;;;;7.00;4.77;;;27.40;1.00;;;;;;5116671;28;20178;-75
2022/07/20 02:47:14;;;;;;;14.47;4.87;;;27.40;1.00;;;;;;5096071;28;20269;-75
2022/07/20 02:49:40;;;;;;;13.57;5.30;;;28.00;1.00;;;;;;5113984;28;20277;-76
2022/07/20 02:52:05;;;;;;;12.80;4.73;;;27.40;1.00;;;;;;5096397;28;20213;-75
2022/07/20 02:54:31;;;;;;;6.27;4.33;;;27.30;1.00;;;;;;5111604;28;20286;-75
2022/07/20 02:56:56;;;;;;;6.83;5.00;;;27.20;1.00;;;;;;5106533;28;20237;-75
2022/07/20 02:59:22;;;;;;;6.23;4.80;;;;;;;;;;5107602;28;20716;-75
2022/07/20 03:01:48;;;;;;;15.17;5.23;;;27.20;1.00;;;;;;5105925;28;20673;-75
2022/07/20 03:04:13;;;;;;;8.70;4.77;;;27.10;1.00;;;;;;5108527;28;20625;-75
2022/07/20 03:06:39;;;;;;;5.67;4.50;;;27.20;1.00;;;;;;5108275;28;20641;-75
2022/07/20 03:09:04;;;;;;;7.50;4.77;;;27.00;1.00;;;;;;5108201;28;20197;-75
2022/07/20 03:11:30;;;;;;;7.40;4.23;;;;;;;;;;5107529;28;20178;-76
2022/07/20 03:13:56;;;;;;;8.60;5.40;;;27.00;1.00;;;;;;5108870;28;20633;-75
2022/07/20 03:16:22;;;;;;;9.00;4.80;;;;;;;;;;5107639;28;20205;-76
2022/07/20 03:18:47;;;;;;;9.67;5.53;;;27.00;1.00;;;;;;5107659;28;20203;-76
2022/07/20 03:21:13;;;;;;;6.20;4.60;;;27.20;1.00;;;;;;5088729;28;20166;-75
2022/07/20 03:23:38;;;;;;;8.90;5.00;;;26.90;1.00;;;;;;5107577;28;20171;-77
2022/07/20 03:26:04;;;;;;;8.03;4.47;;;27.00;1.00;;;;;;5106431;28;20727;-76
2022/07/20 03:28:30;;;;;;;13.90;5.33;;;26.80;1.00;;;;;;5072554;28;20210;-77
2022/07/20 03:30:55;;;;;;;7.77;4.80;;;26.80;1.00;;;;;;5106701;28;20186;-75
2022/07/20 03:33:21;;;;;;;7.57;5.00;;;;;;;;;;5101541;28;20668;-75
2022/07/20 03:35:47;;;;;;;8.20;4.70;;;26.80;1.00;;;;;;5107154;28;20208;-76
2022/07/20 03:38:12;;;;;;;9.00;5.03;;;26.70;1.00;;;;;;5107100;28;20255;-77
2022/07/20 03:40:38;;;;;;;6.93;4.77;;;26.80;1.00;;;;;;5108896;28;20182;-75
2022/07/20 03:43:03;;;;;;;7.90;4.77;;;27.00;1.00;;;;;;5086149;28;20250;-75
2022/07/20 03:45:29;;;;;;;7.83;4.90;;;26.70;1.00;;;;;;5108629;28;20240;-76
2022/07/20 03:47:55;;;;;;;8.57;4.80;;;26.60;1.00;;;;;;5106161;28;20272;-75
2022/07/20 03:50:21;;;;;;;7.53;4.83;;;26.80;1.00;;;;;;5108758;28;20179;-75
2022/07/20 03:52:46;;;;;;;8.47;5.20;;;26.60;1.00;;;;;;5109999;28;20712;-75
2022/07/20 03:55:12;;;;;;;7.53;5.13;;;26.60;1.00;;;;;;5112023;28;20178;-75
2022/07/20 03:57:37;;;;;;;11.13;4.80;;;26.70;1.00;;;;;;5110567;28;20203;-76
2022/07/20 04:00:04;;;;;;;7.77;4.93;;;26.70;1.00;;;;;;5094163;28;20309;-75
2022/07/20 04:02:30;;;;;;;10.90;4.90;;;26.70;1.00;;;;;;5109648;28;20171;-77
2022/07/20 04:04:55;;;;;;;10.97;5.60;;;26.70;1.00;;;;;;5112328;28;20178;-75
2022/07/20 04:07:21;;;;;;;7.53;4.50;;;27.80;1.00;;;;;;5093187;28;20197;-75
2022/07/20 04:09:46;;;;;;;16.37;5.27;;;27.10;1.00;;;;;;5111238;28;20735;-76
2022/07/20 04:12:23;;;;;;;7.30;4.57;;;27.00;1.00;;;;;;5091156;28;20640;-76
2022/07/20 04:14:50;;;;;;;7.13;5.40;;;27.00;1.00;;;;;;5093055;28;20177;-75
2022/07/20 04:17:17;;;;;;;9.50;5.00;;;27.00;1.00;;;;;;5108070;28;20603;-75
2022/07/20 04:19:43;;;;;;;10.13;4.80;;;26.90;1.00;;;;;;5110150;28;20191;-75
2022/07/20 04:22:09;;;;;;;9.00;4.90;;;26.90;1.00;;;;;;5110215;28;20666;-75
2022/07/20 04:24:34;;;;;;;9.37;4.83;;;27.20;1.00;;;;;;5110722;28;20175;-75
2022/07/20 04:27:00;;;;;;;9.80;4.50;;;26.90;1.00;;;;;;5109777;28;20201;-76
2022/07/20 04:29:26;;;;;;;12.30;4.90;;;26.90;1.00;;;;;;5111852;28;20259;-75
2022/07/20 04:31:52;;;;;;;8.57;4.80;;;27.00;1.00;;;;;;5109813;28;20644;-75
2022/07/20 04:34:17;;;;;;;11.10;4.80;;;26.90;1.00;;;;;;5111377;28;20376;-75
2022/07/20 04:36:43;;;;;;;7.47;4.43;;;27.20;1.00;;;;;;5094528;28;20201;-75
2022/07/20 04:39:08;;;;;;;10.17;4.50;;;27.00;1.00;;;;;;5111035;28;20210;-76
2022/07/20 04:41:34;;;;;;;7.67;5.07;;;;;;;;;;5092824;28;20170;-76
2022/07/20 04:44:00;;;;;;;7.77;4.30;;;;;;;;;;5111718;28;20202;-77
2022/07/20 04:46:28;;;;;;;9.90;4.67;;;27.10;1.00;;;;;;5112309;28;20197;-75
2022/07/20 04:48:53;;;;;;;7.23;4.83;;;27.00;1.00;;;;;;5110178;28;20202;-75
2022/07/20 04:51:19;;;;;;;6.60;4.67;;;;;;;;;;5111354;28;20667;-76
2022/07/20 04:53:45;;;;;;;9.93;4.40;;;27.10;1.00;;;;;;5110169;28;20257;-76
2022/07/20 04:56:11;;;;;;;6.33;4.10;;;27.10;1.00;;;;;;5108801;28;20194;-75
2022/07/20 04:58:36;;;;;;;6.40;4.53;;;27.30;1.00;;;;;;5110050;28;20213;-74
2022/07/20 05:01:02;;;;;;;12.87;4.90;;;27.10;1.00;;;;;;5110432;28;20189;-75
2022/07/20 05:03:27;;;;;;;6.37;4.53;;;27.20;1.00;;;;;;5091335;28;20227;-77
2022/07/20 05:05:53;;;;;;;9.40;4.83;;;27.50;1.00;;;;;;5093318;28;20649;-75
2022/07/20 05:08:19;;;;;;;6.53;4.60;;;;;;;;;;5110714;28;20190;-75
2022/07/20 05:10:45;;;;;;;8.90;4.70;;;27.20;1.00;;;;;;5111673;28;20182;-75
2022/07/20 05:13:10;;;;;;;5.80;4.23;;;27.30;1.00;;;;;;5109293;28;20186;-75
2022/07/20 05:15:36;;;;;;;9.53;4.80;;;;;;;;;;5093412;28;20170;-76
2022/07/20 05:18:02;;;;;;;8.30;4.23;;;27.30;1.00;;;;;;5108776;28;20706;-75
2022/07/20 05:20:27;;;;;;;6.27;4.90;;;27.40;1.00;;;;;;5092418;28;20586;-75
2022/07/20 05:22:53;;;;;;;8.90;4.80;;;27.40;1.00;;;;;;5110087;28;20649;-76
2022/07/20 05:25:19;;;;;;;12.23;4.50;;;27.50;1.00;;;;;;5111468;28;20641;-76
2022/07/20 05:27:44;;;;;;;23.53;5.47;;;27.50;1.00;;;;;;5108218;28;20185;-75
2022/07/20 05:30:10;;;;;;;6.90;4.97;;;27.50;1.00;;;;;;5111124;28;20181;-76
2022/07/20 05:32:36;;;;;;;7.70;4.00;;;;;;;;;;5108886;28;20395;-76
2022/07/20 05:35:02;;;;;;;6.33;4.30;;;27.60;1.00;;;;;;5103542;28;20254;-76
2022/07/20 05:37:28;;;;;;;7.80;4.43;;;27.70;1.00;;;;;;5090777;28;20194;-76
2022/07/20 05:39:53;;;;;;;5.63;4.07;;;27.90;1.00;;;;;;5110393;28;20568;-75
2022/07/20 05:42:19;;;;;;;11.73;5.10;;;27.80;1.00;;;;;;5108914;28;20181;-75
2022/07/20 05:44:45;;;;;;;7.13;4.30;;;27.80;1.00;;;;;;5111264;28;20637;-76
2022/07/20 05:47:10;;;;;;;7.83;4.70;;;27.80;1.00;;;;;;5108796;28;20253;-75
2022/07/20 05:49:36;;;;;;;6.67;4.23;;;28.00;1.00;;;;;;5109386;28;20293;-76
2022/07/20 05:52:04;;;;;;;9.07;4.20;;;27.80;1.00;;;;;;5109026;28;20544;-75
2022/07/20 05:54:30;;;;;;;7.27;4.20;;;28.30;1.00;;;;;;5108917;28;20182;-76
2022/07/20 05:56:56;;;;;;;9.13;4.20;;;27.90;1.00;;;;;;5108063;28;20206;-75
2022/07/20 05:59:22;;;;;;;8.70;4.77;;;28.20;1.00;;;;;;5110986;28;20293;-76
2022/07/20 06:01:47;;;;;;;7.17;4.40;;;28.10;1.00;;;;;;5108829;28;20210;-76
2022/07/20 06:04:14;;;;;;;8.27;4.13;;;28.10;1.00;;;;;;5092495;28;20558;-76
2022/07/20 06:06:40;;;;;;;9.70;4.50;;;28.20;1.00;;;;;;5108769;28;20170;-76
2022/07/20 06:09:06;;;;;;;6.40;4.40;;;28.20;1.00;;;;;;5109482;28;20205;-76
2022/07/20 06:11:33;;;;;;;8.50;4.30;;;28.40;1.00;;;;;;5107139;28;20641;-75
2022/07/20 06:13:58;;;;;;;7.90;4.47;;;28.30;1.00;;;;;;5110444;28;20163;-75
2022/07/20 06:16:24;;;;;;;7.17;4.40;;;28.40;1.00;;;;;;5106702;28;20202;-75
2022/07/20 06:18:50;;;;;;;8.30;4.90;;;28.50;1.00;;;;;;5108169;28;20281;-75
2022/07/20 06:21:15;;;;;;;7.50;4.40;;;28.60;1.00;;;;;;5106828;28;20425;-77
2022/07/20 06:23:41;;;;;;;7.50;4.37;;;28.60;1.00;;;;;;5108831;28;20567;-77
2022/07/20 06:26:07;;;;;;;7.13;4.43;;;28.30;1.00;;;;;;5087678;28;20170;-76
2022/07/20 06:28:33;;;;;;;5.90;4.40;;;28.70;1.00;;;;;;5104346;28;20201;-76
2022/07/20 06:30:59;;;;;;;7.50;4.37;;;28.70;1.00;;;;;;5107336;28;20175;-75
2022/07/20 06:33:25;;;;;;;5.05;4.10;;;28.80;1.00;;;;;;5089117;28;20307;-78
2022/07/20 06:35:50;;;;;;;8.25;4.30;;;28.80;1.00;;;;;;5088658;28;20270;-76
2022/07/20 06:38:16;;;;;;;10.27;4.20;;;28.90;1.00;;;;;;5104778;27;20222;-77
2022/07/20 06:40:42;;;;;;;10.48;4.30;;;28.90;1.00;;;;;;5089127;28;20174;-77
2022/07/20 06:43:07;;;;;;;6.40;4.60;;;29.00;1.00;;;;;;5104636;28;20217;-77
2022/07/20 06:45:33;;;;;;;15.77;4.90;;;29.00;1.00;;;;;;5087676;28;20280;-76
2022/07/20 06:47:58;;;;;;;11.13;4.40;;;29.00;1.00;;;;;;5090386;28;20202;-77
2022/07/20 06:50:24;;;;;;;10.55;4.78;;;28.90;1.00;;;;;;5108474;28;20189;-76
2022/07/20 06:52:50;;;;;;;7.07;4.25;;;28.90;1.00;;;;;;5104207;28;20367;-75
2022/07/20 06:55:16;;;;;;;6.75;4.50;;;;;;;;;;5101057;28;20265;-75
2022/07/20 06:57:41;;;;;;;5.57;4.35;;;29.00;1.00;;;;;;5104333;28;20245;-75
2022/07/20 07:00:07;;;;;;;6.75;4.25;;;29.00;1.00;;;;;;5087704;28;20544;-74
2022/07/20 07:02:34;;;;;;;7.40;4.38;;;29.00;1.00;;;;;;5104195;28;20170;-75
2022/07/20 07:04:59;;;;;;;10.13;4.60;;;29.40;1.00;;;;;;5109083;28;20177;-75
2022/07/20 07:07:25;;;;;;;7.43;4.75;;;29.40;1.00;;;;;;5107730;28;20170;-74
2022/07/20 07:09:50;;;;;;;6.88;4.80;;;29.50;1.00;;;;;;5090476;28;20225;-75
2022/07/20 07:12:16;;;;;;;12.63;5.03;;;29.60;1.00;;;;;;5106538;28;20622;-75
2022/07/20 07:14:42;;;;;;;6.45;4.60;;;29.70;1.00;;;;;;5110253;28;20170;-75
2022/07/20 07:17:07;;;;;;;9.40;4.97;;;30.00;1.00;;;;;;5085881;28;20214;-75
2022/07/20 07:19:33;;;;;;;7.47;5.10;;;30.10;1.00;;;;;;5090484;28;20186;-76
2022/07/20 07:21:58;;;;;;;7.38;5.20;;;30.10;1.00;;;;;;5089144;28;20224;-75
2022/07/20 07:24:24;;;;;;;11.15;4.80;;;30.00;1.00;;;;;;5090841;28;20175;-75
2022/07/20 07:26:50;;;;;;;6.65;4.80;;;30.30;1.00;;;;;;5092073;28;20612;-75
2022/07/20 07:29:15;;;;;;;12.23;4.72;;;30.40;1.00;;;;;;5092622;28;20612;-76
2022/07/20 07:31:41;;;;;;;10.20;5.00;;;30.60;1.00;;;;;;5111673;28;20593;-75
2022/07/20 07:34:07;;;;;;;18.05;5.60;;;30.70;1.00;;;;;;5094782;28;20205;-75
2022/07/20 07:36:33;;;;;;;7.40;5.15;;;31.00;1.00;;;;;;5091334;28;20294;-75
2022/07/20 07:38:58;;;;;;;11.40;4.70;;;31.20;1.00;;;;;;5111930;28;20220;-76
2022/07/20 07:41:24;;;;;;;6.55;4.90;;;;;;;;;;5110711;28;20228;-75
2022/07/20 07:43:50;;;;;;;12.23;6.22;;;31.30;1.00;;;;;;5113659;28;20178;-75
2022/07/20 07:46:15;;;;;;;11.32;5.47;;;31.40;1.00;;;;;;5112487;28;20656;-76
2022/07/20 07:48:41;;;;;;;7.95;5.28;;;;;;;;;;5093241;28;20206;-75
2022/07/20 07:51:07;;;;;;;9.57;5.35;;;31.30;1.00;;;;;;5109802;28;20178;-76
2022/07/20 07:53:33;;;;;;;7.75;5.32;;;31.30;1.00;;;;;;5110553;28;20254;-75
2022/07/20 07:55:58;;;;;;;10.88;5.75;;;31.30;1.00;;;;;;5110309;28;20202;-75
2022/07/20 07:58:24;;;;;;;9.75;5.32;;;31.80;1.00;;;;;;5091652;28;20198;-75
2022/07/20 08:00:49;;;;;;;8.75;5.45;;;31.30;1.00;;;;;;5112040;28;20191;-76
2022/07/20 08:03:15;;;;;;;8.68;5.47;;;31.40;1.00;;;;;;5107605;28;20536;-75
2022/07/20 08:05:41;;;;;;;9.48;5.68;;;31.60;1.00;;;;;;5093779;28;20179;-75
2022/07/20 08:08:09;;;;;;;11.15;4.95;;;31.90;1.00;;;;;;5110986;28;20200;-75
2022/07/20 08:10:35;;;;;;;11.38;5.55;;;32.30;1.00;;;;;;5094341;28;20589;-75
2022/07/20 08:13:02;;;;;;;10.82;5.78;;;32.70;1.00;;;;;;5110901;28;20261;-75
2022/07/20 08:15:27;;;;;;;12.30;5.78;;;33.00;1.00;;;;;;5113308;28;20283;-75
2022/07/20 08:17:53;;;;;;;12.73;5.53;;;33.20;1.00;;;;;;5110166;28;20348;-75
2022/07/20 08:20:21;;;;;;;10.80;6.18;;;;;;;;;;5109834;28;20186;-75
2022/07/20 08:22:48;;;;;;;10.00;6.00;;;32.70;1.00;;;;;;5087895;28;20331;-76
2022/07/20 08:25:13;;;;;;;8.20;5.78;;;32.50;1.00;;;;;;5111388;28;20166;-75
2022/07/20 08:27:39;;;;;;;11.57;5.95;;;32.90;1.00;;;;;;5111613;28;20174;-76
2022/07/20 08:30:05;;;;;;;12.52;5.95;;;33.10;1.00;;;;;;5112399;28;20166;-76
2022/07/20 08:32:31;;;;;;;12.77;5.43;;;33.20;1.00;;;;;;5105796;28;20182;-75
2022/07/20 08:34:57;;;;;;;11.95;6.07;;;33.50;1.00;;;;;;5110150;28;20232;-75
2022/07/20 08:37:23;;;;;;;8.70;6.05;;;;;;;;;;5110368;28;20191;-76
2022/07/20 08:39:48;;;;;;;7.95;5.28;;;34.10;1.00;;;;;;5109818;28;20222;-76
2022/07/20 08:42:14;;;;;;;8.75;5.35;;;34.10;1.00;;;;;;5111310;28;20629;-76
2022/07/20 08:44:41;;;;;;;11.18;6.80;;;34.40;1.00;;;;;;5092741;28;20175;-76
2022/07/20 08:47:10;;;;;;;9.18;5.72;;;34.40;1.00;;;;;;5089871;28;20182;-75
2022/07/20 08:49:37;;;;;;;19.40;6.10;;;35.00;1.00;;;;;;5108510;28;20347;-75
2022/07/20 08:52:03;;;;;;;14.27;6.03;;;35.10;1.00;;;;;;5107879;28;20262;-75
2022/07/20 08:54:29;;;;;;;12.65;6.00;;;34.90;1.00;;;;;;5108996;28;20174;-75
2022/07/20 08:56:54;;;;;;;10.77;6.72;;;35.00;1.00;;;;;;5107131;28;20209;-76
2022/07/20 08:59:20;;;;;;;11.75;6.22;;;;;;;;;;5108001;28;20441;-75
2022/07/20 09:02:00;;;;;;;17.58;6.88;;;35.40;1.00;;;;;;5089585;28;20171;-75
2022/07/20 09:04:25;;;;;;;17.58;7.07;;;36.50;1.00;;;;;;5108633;28;20198;-75
2022/07/20 09:06:51;;;;;;;14.60;7.15;;;37.40;1.00;;;;;;5092572;28;20678;-76
2022/07/20 09:09:19;;;;;;;9.57;7.00;;;37.90;1.00;;;;;;5109165;28;20189;-75
2022/07/20 09:11:45;;;;;;;16.63;7.00;;;39.00;1.00;;;;;;5109360;28;20245;-75
2022/07/20 09:14:11;;;;;;;9.90;6.40;;;39.90;1.00;;;;;;5110242;28;20184;-75
2022/07/20 09:16:48;;;;;;;7.85;6.43;;;40.60;1.00;;;;;;5108876;28;20194;-76
2022/07/20 09:19:15;;;;;;;7.85;7.05;;;40.60;1.00;;;;;;5108637;28;20610;-76
2022/07/20 09:21:41;;;;;;;15.25;7.47;;;40.80;1.00;;;;;;5109632;28;20166;-76
2022/07/20 09:24:09;;;;;;;15.68;7.65;;;40.40;1.00;;;;;;5111453;28;20182;-75
2022/07/20 09:26:36;;;;;;;13.65;7.72;;;40.20;1.00;;;;;;5111320;28;20208;-75
2022/07/20 09:29:04;;;;;;;19.60;8.30;;;40.10;1.00;;;;;;5093002;28;20210;-76
2022/07/20 09:31:33;;;;;;;10.90;7.78;;;40.20;1.00;;;;;;5108307;28;20179;-76
2022/07/20 09:34:08;;;;;;;8.77;7.35;;;41.30;1.00;;;;;;5103355;28;20280;-77
2022/07/20 09:36:36;;;;;;;14.25;8.82;;;41.30;1.00;;;;;;5110644;28;20220;-76
2022/07/20 09:39:10;;;;;;;13.18;8.38;;;41.40;1.00;;;;;;5105362;28;20195;-76
2022/07/20 09:41:39;;;;;;;12.98;8.38;;;42.00;1.00;;;;;;5109855;28;20170;-75
2022/07/20 09:44:05;;;;;;;12.93;8.23;;;43.20;1.00;;;;;;5111613;28;20198;-76
2022/07/20 09:46:33;;;;;;;20.17;8.52;;;43.10;1.00;;;;;;5110139;28;20170;-75
2022/07/20 09:49:04;;;;;;;11.73;8.05;;;43.20;1.00;;;;;;5110717;28;20217;-75
2022/07/20 09:51:35;;;;;;;34.78;7.72;;;43.10;1.00;;;;;;5110553;28;20171;-76
2022/07/20 09:54:09;;;;;;;10.07;7.68;;;43.50;1.00;;;;;;5110013;28;20175;-75
2022/07/20 09:56:38;;;;;;;9.07;7.88;;;43.90;1.00;;;;;;5109314;28;20233;-76
2022/07/20 09:59:07;;;;;;;11.57;8.40;;;44.20;1.00;;;;;;5092956;28;20206;-76
2022/07/20 10:01:37;;;;;;;14.07;8.95;;;43.90;1.00;;;;;;5107639;28;20586;-76
2022/07/20 10:04:05;;;;;;;13.10;8.98;;;44.10;1.00;;;;;;5100445;28;20178;-76
2022/07/20 10:06:32;;;;;;;11.23;8.15;;;42.90;1.00;;;;;;5109154;28;20171;-76
2022/07/20 10:08:57;;;;;;;15.40;8.80;;;43.60;1.00;;;;;;5106298;28;20202;-76
2022/07/20 10:11:26;;;;;;;9.90;8.57;;;44.20;1.00;;;;;;5110161;28;20313;-76
2022/07/20 10:13:54;;;;;;;11.63;9.20;;;44.20;1.00;;;;;;5109213;28;20174;-76
2022/07/20 10:16:41;;;;;;;13.63;9.27;;;43.60;1.00;;;;;;5085997;28;20195;-76
2022/07/20 10:19:08;;;;;;;10.98;9.07;;;44.20;1.00;;;;;;5093682;28;20392;-76
2022/07/20 10:21:44;;;;;;;13.73;9.18;;;44.10;1.00;;;;;;5110660;28;20216;-76
2022/07/20 10:24:22;;;;;;;13.63;8.73;;;44.50;1.00;;;;;;5110302;28;20177;-77
2022/07/20 10:26:51;;;;;;;14.95;8.50;;;45.50;1.00;;;;;;5110567;28;20174;-76
2022/07/20 10:29:26;;;;;;;13.30;8.73;;;45.90;1.00;;;;;;5110655;28;20186;-76
2022/07/20 10:31:53;;;;;;;12.13;8.70;;;45.50;1.00;;;;;;5110230;28;20592;-76
2022/07/20 10:34:37;;;;;;;8.77;7.88;;;46.00;1.00;;;;;;5110519;28;20204;-77
2022/07/20 10:37:23;;;;;;;13.27;8.27;;;47.00;1.00;;;;;;5109959;28;20583;-77
2022/07/20 10:39:50;;;;;;;12.10;8.00;;;47.60;1.00;;;;;;5110276;28;20277;-77
2022/07/20 10:42:53;;;;;;;15.57;7.40;;;48.00;1.00;;;;;;5109442;28;20191;-77
2022/07/20 10:45:23;;;;;;;12.57;7.90;;;48.10;1.00;;;;;;5080105;28;20175;-76
2022/07/20 10:47:49;;;;;;;14.95;8.20;;;48.90;1.00;;;;;;5091265;28;20293;-76
2022/07/20 10:50:19;;;;;;;10.80;7.10;;;48.80;1.00;;;;;;5109463;28;20195;-77
2022/07/20 10:52:46;;;;;;;8.80;6.90;;;;;;;;;;5090841;28;20263;-78
2022/07/20 10:55:34;;;;;;;10.20;7.53;;;49.80;1.00;;;;;;5091138;28;20174;-77
2022/07/20 10:58:01;;;;;;;13.57;7.70;;;49.90;1.00;;;;;;5090707;28;20202;-78
2022/07/20 11:00:31;;;;;;;10.27;7.05;;;50.20;1.00;;;;;;5091108;28;20167;-77
2022/07/20 11:02:58;;;;;;;12.23;7.10;;;50.10;1.00;;;;;;5107831;28;20192;-77
2022/07/20 11:05:24;;;;;;;8.00;7.20;;;50.30;1.00;;;;;;5102487;28;20583;-77
2022/07/20 11:07:50;;;;;;;13.68;7.45;;;50.40;1.00;;;;;;5097772;28;20171;-77
2022/07/20 11:10:24;;;;;;;9.02;7.40;;;50.30;1.00;;;;;;5108083;28;20175;-77
2022/07/20 11:13:06;;;;;;;14.65;7.30;;;50.30;1.00;;;;;;5107626;28;20836;-77
2022/07/20 11:15:45;;;;;;;9.57;7.22;;;50.10;1.00;;;;;;5091917;28;20733;-77
2022/07/20 11:18:16;;;;;;;9.07;8.07;;;50.10;1.00;;;;;;5109147;28;20194;-77
2022/07/20 11:20:49;;;;;;;8.25;7.45;;;49.00;1.00;;;;;;5109985;28;20210;-77
2022/07/20 11:23:16;;;;;;;15.85;8.50;;;48.20;1.00;;;;;;5108616;28;20170;-77
2022/07/20 11:25:49;;;;;;;14.93;8.13;;;48.20;1.00;;;;;;5091174;28;20186;-77
2022/07/20 11:28:18;;;;;;;16.73;7.47;;;48.90;1.00;;;;;;5109409;28;20263;-77
2022/07/20 11:30:43;;;;;;;12.05;7.97;;;49.40;1.00;;;;;;5091269;28;20202;-77
2022/07/20 11:33:10;;;;;;;9.02;7.65;;;49.60;1.00;;;;;;5107443;28;20198;-78
2022/07/20 11:35:36;;;;;;;9.65;8.10;;;49.70;1.00;;;;;;5090683;28;20175;-77
2022/07/20 11:38:02;;;;;;;19.50;8.73;;;50.10;1.00;;;;;;5108643;28;20206;-77
2022/07/20 11:40:27;;;;;;;8.25;7.30;;;49.50;1.00;;;;;;5109003;28;20274;-77
2022/07/20 11:43:13;;;;;;;13.40;8.32;;;49.00;1.00;;;;;;5107918;28;20170;-77
2022/07/20 11:45:39;;;;;;;13.20;7.93;;;48.90;1.00;;;;;;5108784;28;20174;-77
2022/07/20 11:48:19;;;;;;;12.77;8.13;;;48.80;1.00;;;;;;5106173;28;20230;-77
2022/07/20 11:50:45;;;;;;;11.10;9.20;;;49.40;1.00;;;;;;5091028;28;20228;-76
2022/07/20 11:53:27;;;;;;;12.35;9.63;;;48.90;1.00;;;;;;5107716;28;20544;-77
2022/07/20 11:55:54;;;;;;;9.82;8.20;;;48.90;1.00;;;;;;5109188;28;20171;-76
2022/07/20 11:58:35;;;;;;;13.52;8.57;;;49.40;1.00;;;;;;5090715;28;20560;-76
2022/07/20 12:01:03;;;;;;;16.42;9.77;;;50.30;1.00;;;;;;5099445;28;20262;-77
2022/07/20 12:03:40;;;;;;;12.20;8.98;;;49.60;1.00;;;;;;5108550;28;20190;-77
2022/07/20 12:06:09;;;;;;;23.48;10.57;;;49.50;1.00;;;;;;5107221;28;20178;-77
2022/07/20 12:08:35;;;;;;;17.33;14.13;;;48.80;1.00;;;;;;5108608;28;20197;-77
2022/07/20 12:11:02;;;;;;;18.73;10.23;;;49.10;1.00;;;;;;5108023;28;20178;-78
2022/07/20 12:13:28;;;;;;;13.68;11.85;;;;;;;;;;5112359;28;20173;-78
2022/07/20 12:16:02;;;;;;;21.42;12.18;;;49.50;1.00;;;;;;5093410;28;20178;-76
2022/07/20 12:18:44;;;;;;;14.10;12.60;;;47.60;1.00;;;;;;5093435;28;20181;-77
2022/07/20 12:21:14;;;;;;;19.35;13.02;;;47.00;1.00;;;;;;5073994;28;20168;-77
2022/07/20 12:23:42;;;;;;;15.43;12.13;;;46.30;1.00;;;;;;5073872;28;20190;-76
2022/07/20 12:26:44;;;;;;;22.20;12.55;;;46.10;1.00;;;;;;5088476;28;20276;-76
2022/07/20 12:29:25;;;;;;;15.18;12.32;;;46.40;1.00;;;;;;5013019;28;20635;-76
2022/07/20 12:31:59;;;;;;;17.38;12.32;;;47.20;1.00;;;;;;5078082;28;20194;-78
2022/07/20 12:34:25;;;;;;;14.32;12.20;;;48.40;1.00;;;;;;5112502;28;20166;-76
2022/07/20 12:36:51;;;;;;;16.42;12.13;;;;;;;;;;5094099;28;20614;-76
2022/07/20 12:39:39;;;;;;;15.73;12.48;;;47.60;1.00;;;;;;5111447;28;20198;-76
2022/07/20 12:42:26;;;;;;;17.17;13.32;;;47.50;1.00;;;;;;5093406;28;20202;-77
2022/07/20 12:45:04;;;;;;;15.57;12.35;;;46.90;1.00;;;;;;5093156;28;20187;-77
2022/07/20 12:47:30;;;;;;;23.80;12.05;;;47.60;1.00;;;;;;5093277;28;20174;-76
2022/07/20 12:49:56;;;;;;;18.48;12.20;;;;;;;;;;5111978;28;20202;-77
2022/07/20 12:52:22;;;;;;;16.63;11.60;;;48.90;1.00;;;;;;5111418;28;20673;-77
2022/07/20 12:54:47;;;;;;;13.90;11.98;;;48.70;1.00;;;;;;5111762;28;20206;-76
2022/07/20 12:57:17;;;;;;;16.00;12.48;;;48.70;1.00;;;;;;5092848;28;20194;-75
2022/07/20 12:59:43;;;;;;;12.70;11.40;;;48.70;1.00;;;;;;5111507;28;20229;-77
2022/07/20 13:02:10;;;;;;;15.57;12.07;;;48.90;1.00;;;;;;5111447;28;20239;-76
2022/07/20 13:04:36;;;;;;;18.80;11.43;;;;;;;;;;5091821;28;20167;-77
2022/07/20 13:07:01;;;;;;;13.73;12.25;;;48.60;1.00;;;;;;5111321;28;20603;-76